createdAt,value
2018-04-22T00:00:30.867Z,985.32
2018-04-22T00:01:40.873Z,985.3
2018-04-22T00:02:50.604Z,985.3
2018-04-22T00:04:00.599Z,985.31
2018-04-22T00:05:10.327Z,985.29
2018-04-22T00:06:20.382Z,985.31
2018-04-22T00:07:29.849Z,985.29
2018-04-22T00:08:39.577Z,985.26
2018-04-22T00:09:49.583Z,985.3
2018-04-22T00:10:59.582Z,985.34
2018-04-22T00:12:09.313Z,985.36
2018-04-22T00:13:19.311Z,985.36
2018-04-22T00:14:29.048Z,985.37
2018-04-22T00:15:39.056Z,985.39
2018-04-22T00:16:49.057Z,985.37
2018-04-22T00:17:58.787Z,985.32
2018-04-22T00:19:08.519Z,985.36
2018-04-22T00:20:18.253Z,985.35
2018-04-22T00:21:27.991Z,985.37
2018-04-22T00:22:37.992Z,985.35
2018-04-22T00:23:47.185Z,985.32
2018-04-22T00:24:56.917Z,985.39
2018-04-22T00:26:06.659Z,985.44
2018-04-22T00:27:16.124Z,985.43
2018-04-22T00:28:26.122Z,985.44
2018-04-22T00:29:36.131Z,985.46
2018-04-22T00:30:45.863Z,985.46
2018-04-22T00:31:55.594Z,985.51
2018-04-22T00:33:05.596Z,985.5
2018-04-22T00:34:15.329Z,985.49
2018-04-22T00:35:25.063Z,985.45
2018-04-22T00:36:34.799Z,985.52
2018-04-22T00:37:44.803Z,985.51
2018-04-22T00:38:54.816Z,985.46
2018-04-22T00:40:04.550Z,985.47
2018-04-22T00:41:14.546Z,985.45
2018-04-22T00:42:24.539Z,985.42
2018-04-22T00:43:34.592Z,985.44
2018-04-22T00:44:44.035Z,985.44
2018-04-22T00:45:53.771Z,985.44
2018-04-22T00:47:03.770Z,985.47
2018-04-22T00:48:12.963Z,985.51
2018-04-22T00:49:22.702Z,985.49
2018-04-22T00:50:32.444Z,985.51
2018-04-22T00:51:42.444Z,985.49
2018-04-22T00:52:52.446Z,985.53
2018-04-22T00:54:02.440Z,985.5
2018-04-22T00:55:11.637Z,985.47
2018-04-22T00:56:21.633Z,985.43
2018-04-22T00:57:31.371Z,985.38
2018-04-22T00:58:40.839Z,985.37
2018-04-22T00:59:50.567Z,985.42
2018-04-22T01:01:00.308Z,985.46
2018-04-22T01:02:10.316Z,985.43
2018-04-22T01:03:20.051Z,985.51
2018-04-22T01:04:29.350Z,985.5
2018-04-22T01:05:39.084Z,985.53
2018-04-22T01:06:48.549Z,985.56
2018-04-22T01:07:58.548Z,985.61
2018-04-22T01:09:08.286Z,985.63
2018-04-22T01:10:18.021Z,985.62
2018-04-22T01:11:27.762Z,985.62
2018-04-22T01:12:36.966Z,985.65
2018-04-22T01:13:46.968Z,985.59
2018-04-22T01:14:56.445Z,985.58
2018-04-22T01:16:06.175Z,985.59
2018-04-22T01:17:16.181Z,985.55
2018-04-22T01:18:26.184Z,985.51
2018-04-22T01:19:35.655Z,985.53
2018-04-22T01:20:45.655Z,985.51
2018-04-22T01:21:55.664Z,985.5
2018-04-22T01:23:05.398Z,985.52
2018-04-22T01:24:15.136Z,985.53
2018-04-22T01:25:25.144Z,985.52
2018-04-22T01:26:34.611Z,985.56
2018-04-22T01:27:44.376Z,985.64
2018-04-22T01:28:53.846Z,985.61
2018-04-22T01:30:03.577Z,985.59
2018-04-22T01:31:13.309Z,985.54
2018-04-22T01:32:23.052Z,985.57
2018-04-22T01:33:33.059Z,985.6
2018-04-22T01:34:43.050Z,985.64
2018-04-22T01:35:52.781Z,985.6
2018-04-22T01:37:02.530Z,985.63
2018-04-22T01:38:12.274Z,985.62
2018-04-22T01:39:22.285Z,985.62
2018-04-22T01:40:32.009Z,985.58
2018-04-22T01:41:41.754Z,985.63
2018-04-22T01:42:50.965Z,985.59
2018-04-22T01:44:00.689Z,985.61
2018-04-22T01:45:10.422Z,985.64
2018-04-22T01:46:20.158Z,985.62
2018-04-22T01:47:29.628Z,985.63
2018-04-22T01:48:39.627Z,985.64
2018-04-22T01:49:49.630Z,985.61
2018-04-22T01:50:59.365Z,985.61
2018-04-22T01:52:09.374Z,985.63
2018-04-22T01:53:19.363Z,985.65
2018-04-22T01:54:29.372Z,985.67
2018-04-22T01:55:38.835Z,985.71
2018-04-22T01:56:48.568Z,985.71
2018-04-22T01:57:58.569Z,985.72
2018-04-22T01:59:07.768Z,985.78
2018-04-22T02:00:17.772Z,985.77
2018-04-22T02:01:27.769Z,985.76
2018-04-22T02:02:42.475Z,985.72
2018-04-22T02:03:52.206Z,985.72
2018-04-22T02:05:02.216Z,985.68
2018-04-22T02:06:11.687Z,985.67
2018-04-22T02:07:21.428Z,985.72
2018-04-22T02:08:31.362Z,985.72
2018-04-22T02:09:41.365Z,985.73
2018-04-22T02:10:51.101Z,985.72
2018-04-22T02:12:00.889Z,985.72
2018-04-22T02:13:10.918Z,985.71
2018-04-22T02:14:20.438Z,985.72
2018-04-22T02:15:30.492Z,985.69
2018-04-22T02:16:40.506Z,985.68
2018-04-22T02:17:50.248Z,985.68
2018-04-22T02:19:00.255Z,985.68
2018-04-22T02:20:09.823Z,985.7
2018-04-22T02:21:19.295Z,985.7
2018-04-22T02:22:28.225Z,985.67
2018-04-22T02:23:37.695Z,985.69
2018-04-22T02:24:47.157Z,985.7
2018-04-22T02:25:56.623Z,985.74
2018-04-22T02:27:06.365Z,985.72
2018-04-22T02:28:15.869Z,985.69
2018-04-22T02:29:25.659Z,985.71
2018-04-22T02:30:35.134Z,985.72
2018-04-22T02:31:45.140Z,985.69
2018-04-22T02:32:54.620Z,985.66
2018-04-22T02:34:04.632Z,985.69
2018-04-22T02:35:14.381Z,985.72
2018-04-22T02:36:24.386Z,985.69
2018-04-22T02:37:34.764Z,985.69
2018-04-22T02:38:44.786Z,985.74
2018-04-22T02:39:54.518Z,985.69
2018-04-22T02:41:04.259Z,985.73
2018-04-22T02:42:14.276Z,985.76
2018-04-22T02:43:24.114Z,985.75
2018-04-22T02:44:34.305Z,985.76
2018-04-22T02:45:44.051Z,985.74
2018-04-22T02:46:54.056Z,985.69
2018-04-22T02:48:03.522Z,985.7
2018-04-22T02:49:13.259Z,985.66
2018-04-22T02:50:23.309Z,985.65
2018-04-22T02:51:33.039Z,985.63
2018-04-22T02:52:42.236Z,985.64
2018-04-22T02:53:52.244Z,985.65
2018-04-22T02:55:02.260Z,985.71
2018-04-22T02:56:12.001Z,985.69
2018-04-22T02:57:21.489Z,985.68
2018-04-22T02:58:31.501Z,985.66
2018-04-22T02:59:40.975Z,985.65
2018-04-22T03:03:25.645Z,985.56
2018-04-22T03:04:35.666Z,985.55
2018-04-22T03:05:45.657Z,985.56
2018-04-22T03:06:55.668Z,985.57
2018-04-22T03:08:04.866Z,985.57
2018-04-22T03:09:14.609Z,985.57
2018-04-22T03:10:24.619Z,985.55
2018-04-22T03:11:34.630Z,985.61
2018-04-22T03:12:44.406Z,985.62
2018-04-22T03:13:54.401Z,985.58
2018-04-22T03:15:03.599Z,985.55
2018-04-22T03:16:13.334Z,985.58
2018-04-22T03:17:23.068Z,985.5
2018-04-22T03:18:32.543Z,985.47
2018-04-22T03:19:42.275Z,985.46
2018-04-22T03:20:51.738Z,985.52
2018-04-22T03:22:01.741Z,985.52
2018-04-22T03:23:11.766Z,985.54
2018-04-22T03:24:21.229Z,985.56
2018-04-22T03:25:31.020Z,985.58
2018-04-22T03:26:40.804Z,985.59
2018-04-22T03:27:50.800Z,985.61
2018-04-22T03:29:00.807Z,985.6
2018-04-22T03:30:10.555Z,985.6
2018-04-22T03:31:20.555Z,985.6
2018-04-22T03:32:30.564Z,985.6
2018-04-22T03:33:40.298Z,985.63
2018-04-22T03:34:50.293Z,985.63
2018-04-22T03:36:00.299Z,985.57
2018-04-22T03:37:10.035Z,985.61
2018-04-22T03:38:20.049Z,985.58
2018-04-22T03:39:29.781Z,985.55
2018-04-22T03:40:39.511Z,985.55
2018-04-22T03:41:49.245Z,985.46
2018-04-22T03:42:58.983Z,985.48
2018-04-22T03:44:08.457Z,985.48
2018-04-22T03:45:18.461Z,985.47
2018-04-22T03:46:28.211Z,985.45
2018-04-22T03:47:37.942Z,985.45
2018-04-22T03:48:47.679Z,985.46
2018-04-22T03:49:57.679Z,985.47
2018-04-22T03:51:07.680Z,985.48
2018-04-22T03:52:17.410Z,985.51
2018-04-22T03:53:27.140Z,985.51
2018-04-22T03:54:37.154Z,985.51
2018-04-22T03:55:47.158Z,985.54
2018-04-22T03:56:56.884Z,985.55
2018-04-22T03:58:06.355Z,985.56
2018-04-22T03:59:16.355Z,985.57
2018-04-22T04:00:26.087Z,985.6
2018-04-22T04:01:35.545Z,985.58
2018-04-22T04:02:45.275Z,985.6
2018-04-22T04:03:55.008Z,985.66
2018-04-22T04:05:04.466Z,985.62
2018-04-22T04:06:14.484Z,985.59
2018-04-22T04:07:24.479Z,985.62
2018-04-22T04:08:34.477Z,985.64
2018-04-22T04:09:44.213Z,985.68
2018-04-22T04:10:53.968Z,985.67
2018-04-22T04:12:03.698Z,985.7
2018-04-22T04:13:13.527Z,985.64
2018-04-22T04:14:23.525Z,985.72
2018-04-22T04:15:32.722Z,985.7
2018-04-22T04:16:42.724Z,985.75
2018-04-22T04:17:52.729Z,985.79
2018-04-22T04:19:02.723Z,985.78
2018-04-22T04:20:12.454Z,985.81
2018-04-22T04:21:22.183Z,985.73
2018-04-22T04:22:31.915Z,985.78
2018-04-22T04:23:41.647Z,985.76
2018-04-22T04:24:51.220Z,985.75
2018-04-22T04:26:01.002Z,985.75
2018-04-22T04:27:10.470Z,985.75
2018-04-22T04:28:20.201Z,985.75
2018-04-22T04:29:29.928Z,985.72
2018-04-22T04:30:39.930Z,985.71
2018-04-22T04:31:50.046Z,985.71
2018-04-22T04:32:59.779Z,985.75
2018-04-22T04:34:09.246Z,985.76
2018-04-22T04:35:18.979Z,985.74
2018-04-22T04:36:28.714Z,985.78
2018-04-22T04:37:38.447Z,985.8
2018-04-22T04:38:48.455Z,985.85
2018-04-22T04:39:57.652Z,985.86
2018-04-22T04:41:07.121Z,985.91
2018-04-22T04:42:16.320Z,985.93
2018-04-22T04:43:26.055Z,985.9
2018-04-22T04:44:35.896Z,985.93
2018-04-22T04:45:45.666Z,985.96
2018-04-22T04:46:55.397Z,985.95
2018-04-22T04:48:05.141Z,985.95
2018-04-22T04:49:15.143Z,985.96
2018-04-22T04:50:24.609Z,985.99
2018-04-22T04:51:34.338Z,986.04
2018-04-22T04:52:43.802Z,986.02
2018-04-22T04:53:53.590Z,985.97
2018-04-22T04:55:03.593Z,985.98
2018-04-22T04:56:13.333Z,985.97
2018-04-22T04:57:23.111Z,985.99
2018-04-22T04:58:33.113Z,986.06
2018-04-22T04:59:43.121Z,986.05
2018-04-22T05:00:53.127Z,986.05
2018-04-22T05:02:02.904Z,986.06
2018-04-22T05:03:12.649Z,986.06
2018-04-22T05:04:22.390Z,986.09
2018-04-22T05:05:32.130Z,986.05
2018-04-22T05:06:42.131Z,986.06
2018-04-22T05:07:52.130Z,986.06
2018-04-22T05:09:01.874Z,986.04
2018-04-22T05:10:11.339Z,986.03
2018-04-22T05:11:21.070Z,986.06
2018-04-22T05:12:30.541Z,986.03
2018-04-22T05:13:40.541Z,986.04
2018-04-22T05:14:50.540Z,986.02
2018-04-22T05:16:00.542Z,986.02
2018-04-22T05:17:10.268Z,986.02
2018-04-22T05:18:19.468Z,986.02
2018-04-22T05:19:29.220Z,986.01
2018-04-22T05:20:38.690Z,986
2018-04-22T05:21:48.687Z,986.02
2018-04-22T05:22:58.426Z,986.02
2018-04-22T05:24:08.161Z,986.03
2018-04-22T05:25:18.276Z,985.99
2018-04-22T05:26:28.274Z,986.05
2018-04-22T05:27:37.481Z,986.08
2018-04-22T05:28:47.223Z,986.13
2018-04-22T05:29:56.960Z,986.06
2018-04-22T05:31:06.764Z,986.08
2018-04-22T05:32:16.978Z,986.07
2018-04-22T05:33:26.979Z,986.06
2018-04-22T05:34:36.437Z,986.07
2018-04-22T05:35:46.179Z,986.04
2018-04-22T05:36:56.184Z,986.04
2018-04-22T05:38:05.384Z,986.09
2018-04-22T05:39:14.585Z,986.09
2018-04-22T05:40:24.591Z,986.11
2018-04-22T05:41:34.646Z,986.12
2018-04-22T05:42:44.460Z,986.14
2018-04-22T05:43:54.219Z,986.16
2018-04-22T05:45:03.957Z,986.12
2018-04-22T05:46:13.962Z,986.13
2018-04-22T05:47:23.701Z,986.16
2018-04-22T05:48:33.701Z,986.17
2018-04-22T05:49:43.811Z,986.14
2018-04-22T05:50:53.819Z,986.14
2018-04-22T05:52:03.290Z,986.15
2018-04-22T05:53:13.029Z,986.17
2018-04-22T05:54:22.759Z,986.17
2018-04-22T05:55:32.226Z,986.16
2018-04-22T05:56:41.958Z,986.18
2018-04-22T05:57:51.960Z,986.23
2018-04-22T05:59:01.697Z,986.23
2018-04-22T06:00:11.174Z,986.27
2018-04-22T06:01:21.182Z,986.28
2018-04-22T06:02:30.923Z,986.25
2018-04-22T06:03:40.664Z,986.28
2018-04-22T06:04:50.665Z,986.27
2018-04-22T06:06:00.672Z,986.22
2018-04-22T06:07:10.684Z,986.21
2018-04-22T06:08:20.428Z,986.21
2018-04-22T06:09:30.159Z,986.2
2018-04-22T06:10:40.160Z,986.2
2018-04-22T06:11:50.164Z,986.22
2018-04-22T06:13:00.165Z,986.23
2018-04-22T06:14:09.631Z,986.22
2018-04-22T06:15:19.417Z,986.18
2018-04-22T06:16:28.883Z,986.19
2018-04-22T06:17:38.609Z,986.14
2018-04-22T06:18:48.137Z,986.1
2018-04-22T06:19:58.132Z,986.15
2018-04-22T06:21:08.140Z,986.11
2018-04-22T06:22:18.146Z,986.13
2018-04-22T06:23:27.888Z,986.15
2018-04-22T06:24:37.629Z,986.17
2018-04-22T06:25:47.365Z,986.19
2018-04-22T06:26:57.362Z,986.21
2018-04-22T06:28:07.096Z,986.18
2018-04-22T06:29:16.596Z,986.19
2018-04-22T06:30:26.066Z,986.18
2018-04-22T06:31:35.802Z,986.19
2018-04-22T06:32:45.543Z,986.19
2018-04-22T06:33:55.561Z,986.18
2018-04-22T06:35:04.766Z,986.2
2018-04-22T06:36:14.499Z,986.21
2018-04-22T06:37:24.533Z,986.19
2018-04-22T06:38:34.553Z,986.22
2018-04-22T06:39:44.619Z,986.23
2018-04-22T06:40:54.097Z,986.21
2018-04-22T06:42:03.561Z,986.25
2018-04-22T06:43:13.030Z,986.24
2018-04-22T06:44:23.028Z,986.23
2018-04-22T06:45:32.771Z,986.22
2018-04-22T06:46:42.493Z,986.27
2018-04-22T06:47:52.224Z,986.3
2018-04-22T06:49:01.985Z,986.36
2018-04-22T06:50:11.997Z,986.36
2018-04-22T06:51:21.747Z,986.35
2018-04-22T06:52:31.480Z,986.31
2018-04-22T06:53:41.484Z,986.33
2018-04-22T06:54:51.221Z,986.3
2018-04-22T06:56:00.958Z,986.34
2018-04-22T06:57:10.702Z,986.31
2018-04-22T06:58:20.439Z,986.33
2018-04-22T06:59:30.444Z,986.27
2018-04-22T07:00:39.921Z,986.29
2018-04-22T07:01:49.670Z,986.32
2018-04-22T07:02:58.867Z,986.29
2018-04-22T07:04:08.879Z,986.26
2018-04-22T07:05:18.636Z,986.29
2018-04-22T07:06:28.806Z,986.23
2018-04-22T07:07:38.909Z,986.25
2018-04-22T07:08:48.538Z,986.2
2018-04-22T07:09:58.538Z,986.21
2018-04-22T07:11:08.013Z,986.23
2018-04-22T07:12:17.482Z,986.23
2018-04-22T07:13:27.324Z,986.25
2018-04-22T07:14:37.327Z,986.22
2018-04-22T07:15:47.340Z,986.21
2018-04-22T07:16:57.355Z,986.19
2018-04-22T07:18:06.557Z,986.2
2018-04-22T07:19:16.027Z,986.17
2018-04-22T07:20:25.504Z,986.23
2018-04-22T07:21:35.519Z,986.19
2018-04-22T07:22:44.987Z,986.2
2018-04-22T07:23:54.463Z,986.2
2018-04-22T07:25:04.347Z,986.18
2018-04-22T07:26:14.360Z,986.22
2018-04-22T07:27:24.363Z,986.19
2018-04-22T07:28:33.832Z,986.16
2018-04-22T07:29:43.829Z,986.2
2018-04-22T07:30:53.838Z,986.19
2018-04-22T07:32:03.578Z,986.19
2018-04-22T07:33:13.760Z,986.2
2018-04-22T07:34:23.758Z,986.19
2018-04-22T07:35:32.964Z,986.14
2018-04-22T07:36:42.701Z,986.14
2018-04-22T07:37:52.713Z,986.13
2018-04-22T07:39:02.449Z,986.16
2018-04-22T07:40:11.654Z,986.15
2018-04-22T07:41:21.659Z,986.15
2018-04-22T07:42:31.754Z,986.15
2018-04-22T07:43:41.697Z,986.15
2018-04-22T07:44:51.709Z,986.16
2018-04-22T07:46:01.233Z,986.16
2018-04-22T07:47:11.235Z,986.16
2018-04-22T07:48:21.299Z,986.16
2018-04-22T07:49:31.048Z,986.1
2018-04-22T07:50:40.783Z,986.15
2018-04-22T07:51:50.524Z,986.13
2018-04-22T07:53:00.269Z,986.15
2018-04-22T07:54:10.365Z,986.12
2018-04-22T07:55:20.092Z,986.16
2018-04-22T07:56:30.115Z,986.18
2018-04-22T07:57:39.850Z,986.17
2018-04-22T07:58:49.850Z,986.16
2018-04-22T07:59:59.589Z,986.14
2018-04-22T08:01:09.336Z,986.09
2018-04-22T08:02:19.341Z,986.14
2018-04-22T08:03:29.351Z,986.1
2018-04-22T08:04:38.817Z,986.1
2018-04-22T08:05:48.859Z,986.09
2018-04-22T08:06:58.871Z,986.09
2018-04-22T08:08:08.603Z,986.09
2018-04-22T08:09:18.076Z,986.06
2018-04-22T08:10:28.095Z,986.07
2018-04-22T08:11:37.308Z,986.03
2018-04-22T08:12:46.784Z,986.05
2018-04-22T08:13:56.794Z,986.05
2018-04-22T08:15:06.266Z,986.04
2018-04-22T08:16:15.752Z,986.02
2018-04-22T08:17:25.993Z,986.03
2018-04-22T08:18:36.009Z,986.07
2018-04-22T08:19:45.751Z,986.03
2018-04-22T08:20:55.761Z,986.04
2018-04-22T08:22:05.507Z,986.03
2018-04-22T08:23:14.982Z,986.05
2018-04-22T08:24:24.716Z,986.03
2018-04-22T08:25:34.720Z,986.05
2018-04-22T08:26:44.723Z,986.04
2018-04-22T08:27:54.733Z,986.06
2018-04-22T08:29:04.753Z,985.98
2018-04-22T08:30:14.489Z,985.98
2018-04-22T08:31:24.514Z,986.01
2018-04-22T08:32:34.253Z,985.96
2018-04-22T08:33:44.253Z,985.96
2018-04-22T08:34:54.330Z,985.91
2018-04-22T08:36:03.266Z,985.88
2018-04-22T08:37:13.284Z,985.87
2018-04-22T08:38:23.285Z,985.88
2018-04-22T08:39:33.291Z,985.9
2018-04-22T08:40:43.032Z,985.89
2018-04-22T08:41:53.033Z,985.87
2018-04-22T08:43:02.249Z,985.83
2018-04-22T08:44:11.985Z,985.84
2018-04-22T08:45:21.733Z,985.8
2018-04-22T08:46:31.470Z,985.84
2018-04-22T08:47:41.475Z,985.84
2018-04-22T08:48:51.487Z,985.85
2018-04-22T08:50:01.230Z,985.87
2018-04-22T08:51:10.700Z,985.86
2018-04-22T08:52:20.438Z,985.81
2018-04-22T08:53:30.188Z,985.82
2018-04-22T08:54:40.201Z,985.82
2018-04-22T08:55:49.944Z,985.8
2018-04-22T08:56:59.543Z,985.8
2018-04-22T08:58:08.755Z,985.81
2018-04-22T08:59:18.759Z,985.8
2018-04-22T09:00:28.769Z,985.79
2018-04-22T09:01:38.780Z,985.81
2018-04-22T09:02:48.821Z,985.79
2018-04-22T09:03:58.708Z,985.82
2018-04-22T09:05:08.445Z,985.77
2018-04-22T09:06:18.186Z,985.77
2018-04-22T09:07:28.206Z,985.77
2018-04-22T09:08:37.681Z,985.75
2018-04-22T09:09:47.685Z,985.77
2018-04-22T09:10:57.435Z,985.76
2018-04-22T09:12:07.179Z,985.73
2018-04-22T09:13:17.191Z,985.7
2018-04-22T09:14:27.199Z,985.68
2018-04-22T09:15:37.212Z,985.69
2018-04-22T09:16:47.259Z,985.65
2018-04-22T09:17:56.732Z,985.63
2018-04-22T09:19:06.484Z,985.6
2018-04-22T09:20:15.960Z,985.62
2018-04-22T09:21:25.971Z,985.57
2018-04-22T09:22:35.716Z,985.61
2018-04-22T09:23:45.480Z,985.64
2018-04-22T09:24:55.217Z,985.63
2018-04-22T09:26:04.963Z,985.59
2018-04-22T09:27:14.975Z,985.61
2018-04-22T09:28:24.979Z,985.62
2018-04-22T09:29:34.716Z,985.61
2018-04-22T09:30:44.718Z,985.6
2018-04-22T09:31:54.452Z,985.57
2018-04-22T09:33:03.933Z,985.52
2018-04-22T09:34:14.147Z,985.5
2018-04-22T09:35:23.616Z,985.49
2018-04-22T09:36:33.665Z,985.48
2018-04-22T09:37:43.128Z,985.46
2018-04-22T09:38:52.864Z,985.46
2018-04-22T09:40:02.335Z,985.41
2018-04-22T09:41:11.551Z,985.45
2018-04-22T09:42:21.290Z,985.43
2018-04-22T09:43:31.040Z,985.39
2018-04-22T09:44:41.045Z,985.38
2018-04-22T09:45:51.086Z,985.36
2018-04-22T09:47:00.991Z,985.39
2018-04-22T09:48:11.003Z,985.35
2018-04-22T09:49:21.008Z,985.33
2018-04-22T09:50:31.027Z,985.34
2018-04-22T09:51:40.774Z,985.33
2018-04-22T09:52:50.778Z,985.28
2018-04-22T09:54:00.785Z,985.23
2018-04-22T09:55:10.791Z,985.24
2018-04-22T09:56:20.946Z,985.2
2018-04-22T09:57:30.678Z,985.2
2018-04-22T09:58:40.412Z,985.21
2018-04-22T09:59:50.152Z,985.17
2018-04-22T10:01:00.162Z,985.16
2018-04-22T10:02:10.172Z,985.13
2018-04-22T10:03:20.173Z,985.13
2018-04-22T10:04:29.383Z,985.08
2018-04-22T10:05:39.389Z,985.1
2018-04-22T10:06:49.394Z,985.07
2018-04-22T10:07:58.911Z,985.05
2018-04-22T10:09:08.694Z,985.02
2018-04-22T10:10:18.700Z,985.01
2018-04-22T10:11:28.706Z,985
2018-04-22T10:12:38.447Z,985
2018-04-22T10:13:47.922Z,984.99
2018-04-22T10:14:57.926Z,984.95
2018-04-22T10:16:07.661Z,984.9
2018-04-22T10:17:17.415Z,984.88
2018-04-22T10:18:26.892Z,984.88
2018-04-22T10:19:36.366Z,984.85
2018-04-22T10:20:46.378Z,984.82
2018-04-22T10:21:56.186Z,984.81
2018-04-22T10:23:06.262Z,984.78
2018-04-22T10:24:16.003Z,984.74
2018-04-22T10:25:25.737Z,984.74
2018-04-22T10:26:35.209Z,984.76
2018-04-22T10:27:44.708Z,984.74
2018-04-22T10:28:54.204Z,984.72
2018-04-22T10:30:03.949Z,984.7
2018-04-22T10:31:13.966Z,984.7
2018-04-22T10:32:23.977Z,984.69
2018-04-22T10:33:33.715Z,984.69
2018-04-22T10:34:43.209Z,984.71
2018-04-22T10:35:53.307Z,984.66
2018-04-22T10:37:03.390Z,984.69
2018-04-22T10:38:13.156Z,984.62
2018-04-22T10:39:22.909Z,984.65
2018-04-22T10:40:32.652Z,984.64
2018-04-22T10:41:42.134Z,984.6
2018-04-22T10:42:52.145Z,984.57
2018-04-22T10:44:02.152Z,984.55
2018-04-22T10:45:12.157Z,984.57
2018-04-22T10:46:22.164Z,984.55
2018-04-22T10:47:32.178Z,984.57
2018-04-22T10:48:41.648Z,984.55
2018-04-22T10:49:51.660Z,984.52
2018-04-22T10:51:01.667Z,984.53
2018-04-22T10:52:11.413Z,984.5
2018-04-22T10:53:20.904Z,984.52
2018-04-22T10:54:30.649Z,984.48
2018-04-22T10:55:40.429Z,984.43
2018-04-22T10:56:50.450Z,984.42
2018-04-22T10:58:00.581Z,984.44
2018-04-22T10:59:10.959Z,984.4
2018-04-22T11:00:21.057Z,984.39
2018-04-22T11:01:30.802Z,984.4
2018-04-22T11:02:40.832Z,984.35
2018-04-22T11:03:50.577Z,984.35
2018-04-22T11:05:00.107Z,984.41
2018-04-22T11:06:09.358Z,984.38
2018-04-22T11:07:19.379Z,984.31
2018-04-22T11:08:28.667Z,984.33
2018-04-22T11:09:38.409Z,984.32
2018-04-22T11:10:48.414Z,984.28
2018-04-22T11:11:57.618Z,984.3
2018-04-22T11:13:07.370Z,984.28
2018-04-22T11:14:17.162Z,984.25
2018-04-22T11:15:26.993Z,984.26
2018-04-22T11:16:36.465Z,984.21
2018-04-22T11:17:46.212Z,984.24
2018-04-22T11:18:55.414Z,984.22
2018-04-22T11:20:04.892Z,984.19
2018-04-22T11:21:14.371Z,984.27
2018-04-22T11:22:24.381Z,984.35
2018-04-22T11:23:34.388Z,984.41
2018-04-22T11:24:44.407Z,984.41
2018-04-22T11:25:54.428Z,984.34
2018-04-22T11:27:04.193Z,984.38
2018-04-22T11:28:13.937Z,984.25
2018-04-22T11:29:23.946Z,984.21
2018-04-22T11:30:33.421Z,984.25
2018-04-22T11:31:43.169Z,984.28
2018-04-22T11:32:53.180Z,984.25
2018-04-22T11:34:03.195Z,984.2
2018-04-22T11:35:12.937Z,984.19
2018-04-22T11:36:22.415Z,984.21
2018-04-22T11:37:32.430Z,984.11
2018-04-22T11:38:42.446Z,984.16
2018-04-22T11:39:52.192Z,984.19
2018-04-22T11:41:02.212Z,984.21
2018-04-22T11:42:12.227Z,984.18
2018-04-22T11:43:22.244Z,984.19
2018-04-22T11:44:31.728Z,984.13
2018-04-22T11:45:41.218Z,984.21
2018-04-22T11:46:51.253Z,984.2
2018-04-22T11:48:00.740Z,984.09
2018-04-22T11:49:10.225Z,984.09
2018-04-22T11:50:20.242Z,984.07
2018-04-22T11:51:30.260Z,984.06
2018-04-22T11:52:40.109Z,984.1
2018-04-22T11:53:49.865Z,984.01
2018-04-22T11:54:59.628Z,984.02
2018-04-22T11:56:09.662Z,983.96
2018-04-22T11:57:19.419Z,983.95
2018-04-22T11:58:29.229Z,983.95
2018-04-22T11:59:38.988Z,983.92
2018-04-22T12:00:48.758Z,983.83
2018-04-22T12:01:58.518Z,983.84
2018-04-22T12:03:08.010Z,983.87
2018-04-22T12:04:17.767Z,983.82
2018-04-22T12:05:27.533Z,983.88
2018-04-22T12:06:37.552Z,983.82
2018-04-22T12:07:47.305Z,983.81
2018-04-22T12:08:57.331Z,983.86
2018-04-22T12:10:07.094Z,983.88
2018-04-22T12:11:16.581Z,983.83
2018-04-22T12:12:26.609Z,983.86
2018-04-22T12:13:36.639Z,983.83
2018-04-22T12:14:46.663Z,983.84
2018-04-22T12:15:56.164Z,983.81
2018-04-22T12:17:05.938Z,983.74
2018-04-22T12:18:15.151Z,983.79
2018-04-22T12:19:24.919Z,983.8
2018-04-22T12:20:34.978Z,983.77
2018-04-22T12:21:45.286Z,983.79
2018-04-22T12:22:55.315Z,983.79
2018-04-22T12:24:05.073Z,983.74
2018-04-22T12:25:14.840Z,983.87
2018-04-22T12:26:24.598Z,983.73
2018-04-22T12:27:34.087Z,983.78
2018-04-22T12:28:43.851Z,983.75
2018-04-22T12:29:53.872Z,983.78
2018-04-22T12:31:03.646Z,983.88
2018-04-22T12:32:13.412Z,983.79
2018-04-22T12:33:23.454Z,983.76
2018-04-22T12:34:33.488Z,983.66
2018-04-22T12:35:42.977Z,983.71
2018-04-22T12:36:52.469Z,983.57
2018-04-22T12:38:01.967Z,983.64
2018-04-22T12:39:12.011Z,983.73
2018-04-22T12:40:21.505Z,983.54
2018-04-22T12:41:31.544Z,983.62
2018-04-22T12:42:40.774Z,983.57
2018-04-22T12:43:50.545Z,983.64
2018-04-22T12:45:00.299Z,983.72
2018-04-22T12:46:10.066Z,983.68
2018-04-22T12:47:19.816Z,983.62
2018-04-22T12:48:29.839Z,983.53
2018-04-22T12:49:39.882Z,983.55
2018-04-22T12:50:49.384Z,983.69
2018-04-22T12:51:58.610Z,983.68
2018-04-22T12:53:08.366Z,983.61
2018-04-22T12:54:18.386Z,983.63
2018-04-22T12:55:27.607Z,983.6
2018-04-22T12:56:37.653Z,983.6
2018-04-22T12:57:47.677Z,983.62
2018-04-22T12:58:57.699Z,983.59
2018-04-22T13:00:07.458Z,983.63
2018-04-22T13:01:17.496Z,983.61
2018-04-22T13:02:27.264Z,983.63
2018-04-22T13:03:37.290Z,983.65
2018-04-22T13:04:47.337Z,983.71
2018-04-22T13:05:57.407Z,983.72
2018-04-22T13:07:06.986Z,983.69
2018-04-22T13:08:16.744Z,983.61
2018-04-22T13:09:25.970Z,983.59
2018-04-22T13:10:35.458Z,983.54
2018-04-22T13:11:44.971Z,983.54
2018-04-22T13:12:54.744Z,983.52
2018-04-22T13:14:04.544Z,983.47
2018-04-22T13:15:13.842Z,983.44
2018-04-22T13:16:23.866Z,983.28
2018-04-22T13:17:33.352Z,983.33
2018-04-22T13:18:43.111Z,983.35
2018-04-22T13:19:53.131Z,983.25
2018-04-22T13:21:03.150Z,983.22
2018-04-22T13:22:12.915Z,983.25
2018-04-22T13:23:22.941Z,983.22
2018-04-22T13:24:32.972Z,983.26
2018-04-22T13:25:42.745Z,983.27
2018-04-22T13:26:52.641Z,983.39
2018-04-22T13:28:02.408Z,983.4
2018-04-22T13:29:12.162Z,983.35
2018-04-22T13:30:21.919Z,983.2
2018-04-22T13:31:31.677Z,983.24
2018-04-22T13:32:41.945Z,983.28
2018-04-22T13:33:51.975Z,983.34
2018-04-22T13:35:01.736Z,983.32
2018-04-22T13:36:11.228Z,983.28
2018-04-22T13:37:21.253Z,983.33
2018-04-22T13:38:30.807Z,983.4
2018-04-22T13:39:40.836Z,983.33
2018-04-22T13:40:50.055Z,983.24
2018-04-22T13:42:00.091Z,983.08
2018-04-22T13:43:09.589Z,983.09
2018-04-22T13:44:19.354Z,983.06
2018-04-22T13:45:29.379Z,983.18
2018-04-22T13:46:39.407Z,983.22
2018-04-22T13:47:49.433Z,983.29
2018-04-22T13:48:59.521Z,983.41
2018-04-22T13:50:09.279Z,983.27
2018-04-22T13:51:19.049Z,983.35
2018-04-22T13:52:28.819Z,983.45
2018-04-22T13:53:38.842Z,983.35
2018-04-22T13:54:48.875Z,983.45
2018-04-22T13:55:58.097Z,983.44
2018-04-22T13:57:08.120Z,983.34
2018-04-22T13:58:18.144Z,983.43
2018-04-22T13:59:28.167Z,983.45
2018-04-22T14:00:37.925Z,983.39
2018-04-22T14:01:47.464Z,983.4
2018-04-22T14:02:57.493Z,983.47
2018-04-22T14:04:07.513Z,983.38
2018-04-22T14:05:17.272Z,983.38
2018-04-22T14:06:27.027Z,983.26
2018-04-22T14:07:36.800Z,982.89
2018-04-22T14:08:46.828Z,983.02
2018-04-22T14:09:56.591Z,983.32
2018-04-22T14:11:06.083Z,983.38
2018-04-22T14:12:15.838Z,983.32
2018-04-22T14:13:25.597Z,983.44
2018-04-22T14:14:34.822Z,983.4
2018-04-22T14:15:44.856Z,983.28
2018-04-22T14:16:54.885Z,983.33
2018-04-22T14:18:05.003Z,983.39
2018-04-22T14:19:14.499Z,983.11
2018-04-22T14:20:23.999Z,983.03
2018-04-22T14:21:34.045Z,982.87
2018-04-22T14:22:43.805Z,983.04
2018-04-22T14:23:53.571Z,983.17
2018-04-22T14:25:03.621Z,983.28
2018-04-22T14:26:13.307Z,983.22
2018-04-22T14:27:23.063Z,983.16
2018-04-22T14:28:32.823Z,983.21
2018-04-22T14:29:42.312Z,983.18
2018-04-22T14:30:51.806Z,983.24
2018-04-22T14:32:01.564Z,983.01
2018-04-22T14:33:11.323Z,982.96
2018-04-22T14:34:21.347Z,983.06
2018-04-22T14:35:31.391Z,983.38